Time;durP1;ratioP1;P1;durP2;ratioP2;P2;SDS_P1;SDS_P2;PMS_P1;PMS_P2;Temp;Humidity;BMP_temperature;BMP_pressure;BME280_temperature;BME280_humidity;BME280_pressure;Samples;Min_cycle;Max_cycle;Signal;HPM_P1;HPM_P2
2021/07/22 00:00:17;;;;;;;;;;;20.50;66.40;;;;;;484685;245;1040;-45
2021/07/22 00:02:19;;;;;;;;;;;20.40;66.40;;;;;;484576;245;1184;-45
2021/07/22 00:04:20;;;;;;;;;;;20.50;66.50;;;;;;484899;245;1073;-45
2021/07/22 00:06:21;;;;;;;;;;;20.50;66.50;;;;;;484786;245;1473;-45
2021/07/22 00:08:23;;;;;;;;;;;20.50;66.50;;;;;;484629;245;1360;-45
2021/07/22 00:10:24;;;;;;;;;;;20.50;66.50;;;;;;484883;245;998;-45
2021/07/22 00:12:25;;;;;;;;;;;20.50;66.50;;;;;;484653;245;2157;-45
2021/07/22 00:14:28;;;;;;;;;;;20.50;66.50;;;;;;485137;245;973;-45
2021/07/22 00:16:28;;;;;;;;;;;20.50;66.40;;;;;;484971;246;2169;-45
2021/07/22 00:18:32;;;;;;;;;;;20.50;66.40;;;;;;485109;245;1090;-45
2021/07/22 00:20:31;;;;;;;;;;;20.50;66.50;;;;;;484985;246;2236;-45
2021/07/22 00:22:33;;;;;;;;;;;20.50;66.40;;;;;;484682;245;1048;-45
2021/07/22 00:24:34;;;;;;;;;;;20.50;66.40;;;;;;484736;245;1078;-45
2021/07/22 00:26:35;;;;;;;;;;;20.40;66.50;;;;;;484649;245;1460;-45
2021/07/22 00:28:37;;;;;;;;;;;20.50;66.50;;;;;;484726;245;1331;-45
2021/07/22 00:30:38;;;;;;;;;;;20.40;66.50;;;;;;485133;245;1452;-45
2021/07/22 00:32:39;;;;;;;;;;;20.40;66.50;;;;;;484606;245;2128;-45
2021/07/22 00:34:41;;;;;;;;;;;20.40;66.50;;;;;;485072;245;1067;-45
2021/07/22 00:36:42;;;;;;;;;;;20.40;66.60;;;;;;485153;245;1159;-45
2021/07/22 00:38:43;;;;;;;;;;;20.40;66.60;;;;;;485121;245;1179;-45
2021/07/22 00:40:45;;;;;;;;;;;20.40;66.50;;;;;;485169;245;1112;-45
2021/07/22 00:42:46;;;;;;;;;;;20.40;66.40;;;;;;485132;245;1140;-45
2021/07/22 00:44:47;;;;;;;;;;;20.40;66.50;;;;;;484756;245;1108;-45
2021/07/22 00:46:49;;;;;;;;;;;20.50;66.60;;;;;;484629;245;1231;-45
2021/07/22 00:48:50;;;;;;;;;;;20.40;66.50;;;;;;484661;245;1058;-45
2021/07/22 00:50:51;;;;;;;;;;;20.40;66.50;;;;;;484751;245;1023;-45
2021/07/22 00:52:53;;;;;;;;;;;20.50;66.50;;;;;;485183;245;2183;-45
2021/07/22 00:54:54;;;;;;;;;;;20.50;66.50;;;;;;485158;245;1163;-45
2021/07/22 00:56:55;;;;;;;;;;;20.50;66.40;;;;;;484685;245;1341;-45
2021/07/22 00:58:57;;;;;;;;;;;20.50;66.40;;;;;;484691;245;1078;-45
2021/07/22 01:00:58;;;;;;;;;;;20.40;66.40;;;;;;484683;245;1134;-45
2021/07/22 01:02:59;;;;;;;;;;;20.50;66.50;;;;;;484743;245;1529;-45
2021/07/22 01:05:01;;;;;;;;;;;20.50;66.40;;;;;;485191;245;1044;-45
2021/07/22 01:07:02;;;;;;;;;;;20.50;66.50;;;;;;484611;245;1357;-45
2021/07/22 01:09:04;;;;;;;;;;;20.50;66.50;;;;;;484657;245;1217;-45
2021/07/22 01:11:05;;;;;;;;;;;20.50;66.50;;;;;;485104;245;1126;-45
2021/07/22 01:13:06;;;;;;;;;;;20.50;66.50;;;;;;484680;245;2176;-45
2021/07/22 01:15:08;;;;;;;;;;;20.50;66.50;;;;;;484818;245;1076;-45
2021/07/22 01:17:09;;;;;;;;;;;20.50;66.40;;;;;;484830;245;1371;-46
2021/07/22 01:19:10;;;;;;;;;;;20.50;66.40;;;;;;485104;245;1042;-45
2021/07/22 01:21:12;;;;;;;;;;;20.50;66.50;;;;;;485031;245;1553;-45
2021/07/22 01:23:13;;;;;;;;;;;20.40;66.50;;;;;;485133;245;1063;-45
2021/07/22 01:25:14;;;;;;;;;;;20.40;66.50;;;;;;485166;245;1274;-45
2021/07/22 01:27:16;;;;;;;;;;;20.50;66.60;;;;;;485101;245;1333;-45
2021/07/22 01:29:17;;;;;;;;;;;20.50;66.50;;;;;;485011;245;1189;-45
2021/07/22 01:31:18;;;;;;;;;;;20.50;66.30;;;;;;484944;245;2140;-45
2021/07/22 01:33:20;;;;;;;;;;;20.50;66.30;;;;;;484671;245;1532;-45
2021/07/22 01:35:21;;;;;;;;;;;20.50;66.40;;;;;;485152;245;1164;-46
2021/07/22 01:37:22;;;;;;;;;;;20.50;66.50;;;;;;484752;245;1569;-45
2021/07/22 01:39:24;;;;;;;;;;;20.50;66.50;;;;;;484552;245;1049;-45
2021/07/22 01:41:25;;;;;;;;;;;20.40;66.40;;;;;;484499;245;1391;-45
2021/07/22 01:43:26;;;;;;;;;;;20.50;66.50;;;;;;484692;245;1101;-45
2021/07/22 01:45:27;;;;;;;;;;;20.50;66.50;;;;;;484657;245;1096;-45
2021/07/22 01:47:29;;;;;;;;;;;20.40;66.50;;;;;;484821;245;1227;-45
2021/07/22 01:49:30;;;;;;;;;;;20.50;66.40;;;;;;485142;245;1085;-45
2021/07/22 01:51:31;;;;;;;;;;;20.50;66.50;;;;;;484606;245;2199;-45
2021/07/22 01:53:33;;;;;;;;;;;20.50;66.50;;;;;;485136;245;1048;-45
2021/07/22 01:55:34;;;;;;;;;;;20.50;66.40;;;;;;484835;246;2349;-45
2021/07/22 01:57:35;;;;;;;;;;;20.50;66.40;;;;;;484937;245;1126;-45
2021/07/22 01:59:37;;;;;;;;;;;20.50;66.30;;;;;;485132;245;1055;-45
2021/07/22 02:01:38;;;;;;;;;;;20.50;66.30;;;;;;484950;245;1411;-45
2021/07/22 02:03:39;;;;;;;;;;;20.50;66.40;;;;;;484839;245;1143;-45
2021/07/22 02:05:41;;;;;;;;;;;20.50;66.40;;;;;;485129;245;1051;-45
2021/07/22 02:07:42;;;;;;;;;;;20.50;66.40;;;;;;485084;245;1264;-45
2021/07/22 02:09:43;;;;;;;;;;;20.50;66.50;;;;;;485108;245;1087;-45
2021/07/22 02:11:45;;;;;;;;;;;20.40;66.50;;;;;;484704;245;2148;-45
2021/07/22 02:13:46;;;;;;;;;;;20.50;66.50;;;;;;484928;245;1226;-45
2021/07/22 02:15:47;;;;;;;;;;;20.50;66.50;;;;;;485080;245;1098;-45
2021/07/22 02:17:48;;;;;;;;;;;20.50;66.40;;;;;;484659;245;1240;-45
2021/07/22 02:19:50;;;;;;;;;;;20.40;66.50;;;;;;484696;245;1200;-45
2021/07/22 02:21:51;;;;;;;;;;;20.50;66.40;;;;;;484623;245;1106;-45
2021/07/22 02:23:52;;;;;;;;;;;20.50;66.40;;;;;;484726;245;1184;-45
2021/07/22 02:25:54;;;;;;;;;;;20.50;66.50;;;;;;485096;245;1012;-45
2021/07/22 02:27:55;;;;;;;;;;;20.50;66.50;;;;;;484642;245;1440;-45
2021/07/22 02:29:56;;;;;;;;;;;20.40;66.60;;;;;;485121;245;1132;-45
2021/07/22 02:31:58;;;;;;;;;;;20.40;66.50;;;;;;484792;245;2203;-45
2021/07/22 02:33:59;;;;;;;;;;;20.50;66.40;;;;;;484845;245;1239;-45
2021/07/22 02:36:00;;;;;;;;;;;20.40;66.30;;;;;;484615;245;1198;-45
2021/07/22 02:38:02;;;;;;;;;;;20.50;66.50;;;;;;484675;245;1182;-45
2021/07/22 02:40:03;;;;;;;;;;;20.50;66.40;;;;;;485140;245;1038;-45
2021/07/22 02:42:04;;;;;;;;;;;20.50;66.40;;;;;;484537;245;1524;-45
2021/07/22 02:44:06;;;;;;;;;;;20.50;66.40;;;;;;485100;245;1182;-45
2021/07/22 02:46:07;;;;;;;;;;;20.50;66.40;;;;;;484844;245;1476;-45
2021/07/22 02:48:09;;;;;;;;;;;20.50;66.40;;;;;;485144;245;1070;-45
2021/07/22 02:50:10;;;;;;;;;;;20.50;66.40;;;;;;484673;245;1089;-45
2021/07/22 02:52:12;;;;;;;;;;;20.50;66.40;;;;;;484479;245;2191;-45
2021/07/22 02:54:13;;;;;;;;;;;20.50;66.30;;;;;;484890;245;1159;-45
2021/07/22 02:56:14;;;;;;;;;;;20.50;66.50;;;;;;484847;245;1275;-45
2021/07/22 02:58:16;;;;;;;;;;;20.50;66.50;;;;;;485006;245;1157;-45
2021/07/22 03:00:17;;;;;;;;;;;20.50;66.50;;;;;;484630;245;1426;-45
2021/07/22 03:02:18;;;;;;;;;;;20.50;66.40;;;;;;484872;245;1656;-45
2021/07/22 03:04:20;;;;;;;;;;;20.50;66.40;;;;;;484688;245;1218;-45
2021/07/22 03:06:21;;;;;;;;;;;20.50;66.50;;;;;;485039;245;1280;-45
2021/07/22 03:08:22;;;;;;;;;;;20.50;66.50;;;;;;484681;245;1069;-45
2021/07/22 03:10:24;;;;;;;;;;;20.50;66.50;;;;;;485082;245;1352;-45
2021/07/22 03:12:25;;;;;;;;;;;20.50;66.40;;;;;;484577;245;2195;-45
2021/07/22 03:14:26;;;;;;;;;;;20.50;66.30;;;;;;485153;245;1064;-45
2021/07/22 03:16:28;;;;;;;;;;;20.50;66.30;;;;;;484729;245;1190;-45
2021/07/22 03:18:29;;;;;;;;;;;20.50;66.40;;;;;;484672;245;1106;-45
2021/07/22 03:20:31;;;;;;;;;;;20.50;66.50;;;;;;484708;245;1189;-45
2021/07/22 03:22:32;;;;;;;;;;;20.50;66.50;;;;;;484581;245;1414;-45
2021/07/22 03:24:33;;;;;;;;;;;20.50;66.50;;;;;;485158;245;1070;-45
2021/07/22 03:26:35;;;;;;;;;;;20.50;66.40;;;;;;484602;245;1314;-45
2021/07/22 03:28:36;;;;;;;;;;;20.50;66.40;;;;;;484686;245;1102;-45
2021/07/22 03:30:37;;;;;;;;;;;20.50;66.40;;;;;;485110;245;1134;-45
2021/07/22 03:32:39;;;;;;;;;;;20.50;66.40;;;;;;484825;245;2197;-45
2021/07/22 03:34:40;;;;;;;;;;;20.40;66.40;;;;;;484763;245;2540;-45
2021/07/22 03:36:42;;;;;;;;;;;20.50;66.30;;;;;;485096;245;1390;-45
2021/07/22 03:38:43;;;;;;;;;;;20.50;66.30;;;;;;484733;246;2249;-45
2021/07/22 03:40:44;;;;;;;;;;;20.50;66.40;;;;;;484985;245;1150;-45
2021/07/22 03:42:45;;;;;;;;;;;20.50;66.50;;;;;;484827;245;1249;-45
2021/07/22 03:44:47;;;;;;;;;;;20.40;66.50;;;;;;484653;245;1059;-45
2021/07/22 03:46:48;;;;;;;;;;;20.40;66.50;;;;;;484982;245;1360;-45
2021/07/22 03:48:49;;;;;;;;;;;20.50;66.50;;;;;;485100;245;1070;-45
2021/07/22 03:50:51;;;;;;;;;;;20.50;66.50;;;;;;484675;245;1171;-45
2021/07/22 03:52:52;;;;;;;;;;;20.40;66.50;;;;;;484794;245;2132;-45
2021/07/22 03:54:53;;;;;;;;;;;20.50;66.50;;;;;;484984;245;1039;-45
2021/07/22 03:56:54;;;;;;;;;;;20.50;66.50;;;;;;484678;245;1390;-45
2021/07/22 03:58:56;;;;;;;;;;;20.50;66.50;;;;;;484621;245;1082;-45
2021/07/22 04:00:57;;;;;;;;;;;20.50;66.50;;;;;;484515;245;1193;-45
2021/07/22 04:02:59;;;;;;;;;;;20.40;66.50;;;;;;484740;245;1067;-45
2021/07/22 04:05:01;;;;;;;;;;;20.50;66.50;;;;;;484837;245;1195;-45
2021/07/22 04:07:02;;;;;;;;;;;20.50;66.50;;;;;;484773;245;1173;-45
2021/07/22 04:09:03;;;;;;;;;;;20.40;66.40;;;;;;485143;245;1079;-45
2021/07/22 04:11:06;;;;;;;;;;;20.50;66.60;;;;;;484950;245;1450;-45
2021/07/22 04:13:06;;;;;;;;;;;20.40;66.50;;;;;;484952;246;2191;-45
2021/07/22 04:15:08;;;;;;;;;;;20.40;66.50;;;;;;484639;245;1106;-45
2021/07/22 04:17:09;;;;;;;;;;;20.50;66.50;;;;;;484597;245;1331;-45
2021/07/22 04:19:10;;;;;;;;;;;20.50;66.50;;;;;;484528;245;1099;-45
2021/07/22 04:21:12;;;;;;;;;;;20.50;66.50;;;;;;485081;245;1399;-45
2021/07/22 04:23:13;;;;;;;;;;;20.40;66.50;;;;;;484695;245;1042;-45
2021/07/22 04:25:14;;;;;;;;;;;20.40;66.50;;;;;;484634;245;1118;-45
2021/07/22 04:27:16;;;;;;;;;;;20.50;66.40;;;;;;484623;245;1202;-45
2021/07/22 04:29:17;;;;;;;;;;;20.50;66.40;;;;;;484634;245;1161;-45
2021/07/22 04:31:19;;;;;;;;;;;20.50;66.50;;;;;;484507;245;1455;-45
2021/07/22 04:33:20;;;;;;;;;;;20.50;66.50;;;;;;484659;245;2195;-45
2021/07/22 04:35:21;;;;;;;;;;;20.50;66.50;;;;;;484830;245;1173;-45
2021/07/22 04:37:23;;;;;;;;;;;20.50;66.40;;;;;;484620;245;1305;-45
2021/07/22 04:39:24;;;;;;;;;;;20.50;66.40;;;;;;484592;245;1144;-45
2021/07/22 04:41:25;;;;;;;;;;;20.50;66.30;;;;;;484335;245;1885;-45
2021/07/22 04:43:27;;;;;;;;;;;20.40;66.50;;;;;;484491;245;1132;-45
2021/07/22 04:45:28;;;;;;;;;;;20.40;66.50;;;;;;484481;245;1194;-45
2021/07/22 04:47:29;;;;;;;;;;;20.50;66.50;;;;;;484433;245;1251;-45
2021/07/22 04:49:31;;;;;;;;;;;20.40;66.60;;;;;;484622;245;1187;-45
2021/07/22 04:51:32;;;;;;;;;;;20.50;66.50;;;;;;484927;245;1337;-45
2021/07/22 04:53:34;;;;;;;;;;;20.40;66.50;;;;;;484853;245;2199;-45
2021/07/22 04:55:35;;;;;;;;;;;20.40;66.50;;;;;;484551;245;1132;-45
2021/07/22 04:57:37;;;;;;;;;;;20.50;66.50;;;;;;484897;245;1510;-45
2021/07/22 04:59:39;;;;;;;;;;;20.50;66.40;;;;;;484479;245;1094;-45
2021/07/22 05:01:39;;;;;;;;;;;20.50;66.40;;;;;;484492;245;1188;-45
2021/07/22 05:03:41;;;;;;;;;;;20.50;66.50;;;;;;484574;245;1190;-45
2021/07/22 05:05:42;;;;;;;;;;;20.40;66.50;;;;;;484447;245;1224;-45
2021/07/22 05:07:43;;;;;;;;;;;20.50;66.40;;;;;;484324;245;1505;-45
2021/07/22 05:09:45;;;;;;;;;;;20.50;66.50;;;;;;484475;245;1191;-45
2021/07/22 05:11:46;;;;;;;;;;;20.50;66.40;;;;;;484633;245;1362;-45
2021/07/22 05:13:48;;;;;;;;;;;20.50;66.40;;;;;;484950;245;2164;-45
2021/07/22 05:15:49;;;;;;;;;;;20.40;66.40;;;;;;484301;245;1904;-45
2021/07/22 05:17:50;;;;;;;;;;;20.50;66.50;;;;;;484624;245;1221;-45
2021/07/22 05:19:51;;;;;;;;;;;20.50;66.40;;;;;;484661;245;1181;-45
2021/07/22 05:21:53;;;;;;;;;;;20.50;66.50;;;;;;484568;245;1460;-45
2021/07/22 05:23:54;;;;;;;;;;;20.50;66.30;;;;;;484410;245;1209;-45
2021/07/22 05:25:55;;;;;;;;;;;20.50;66.40;;;;;;484520;245;1104;-45
2021/07/22 05:27:57;;;;;;;;;;;20.50;66.50;;;;;;484495;245;1209;-45
2021/07/22 05:29:58;;;;;;;;;;;20.50;66.50;;;;;;484393;245;1156;-45
2021/07/22 05:32:00;;;;;;;;;;;20.50;66.50;;;;;;484387;245;1220;-45
2021/07/22 05:34:01;;;;;;;;;;;20.40;66.50;;;;;;484341;245;2204;-45
2021/07/22 05:36:03;;;;;;;;;;;20.50;66.50;;;;;;484512;245;1321;-45
2021/07/22 05:38:04;;;;;;;;;;;20.50;66.50;;;;;;484401;245;1212;-45
2021/07/22 05:40:05;;;;;;;;;;;20.50;66.40;;;;;;484554;245;1082;-45
2021/07/22 05:42:07;;;;;;;;;;;20.50;66.40;;;;;;484374;245;1250;-45
2021/07/22 05:44:08;;;;;;;;;;;20.50;66.50;;;;;;484432;245;1300;-45
2021/07/22 05:46:09;;;;;;;;;;;20.40;66.50;;;;;;484282;245;1205;-45
2021/07/22 05:48:11;;;;;;;;;;;20.50;66.60;;;;;;484325;245;1201;-45
2021/07/22 05:50:12;;;;;;;;;;;20.50;66.50;;;;;;484369;245;1375;-45
2021/07/22 05:52:13;;;;;;;;;;;20.50;66.50;;;;;;484392;245;1463;-45
2021/07/22 05:54:14;;;;;;;;;;;20.50;66.50;;;;;;484340;245;2198;-45
2021/07/22 05:56:19;;;;;;;;;;;20.40;66.50;;;;;;484392;245;1273;-45
2021/07/22 05:58:20;;;;;;;;;;;20.40;66.60;;;;;;484300;245;1240;-46
2021/07/22 06:00:21;;;;;;;;;;;20.40;66.50;;;;;;484137;245;1084;-45
2021/07/22 06:02:23;;;;;;;;;;;20.40;66.50;;;;;;484086;245;1315;-45
2021/07/22 06:04:24;;;;;;;;;;;20.40;66.50;;;;;;484189;245;1065;-45
2021/07/22 06:06:25;;;;;;;;;;;20.40;66.60;;;;;;484074;245;1235;-45
2021/07/22 06:08:27;;;;;;;;;;;20.40;66.60;;;;;;484053;245;1098;-45
2021/07/22 06:10:28;;;;;;;;;;;20.40;66.50;;;;;;484140;245;1095;-45
2021/07/22 06:12:30;;;;;;;;;;;20.50;66.60;;;;;;484302;245;1762;-45
2021/07/22 06:14:31;;;;;;;;;;;20.40;66.40;;;;;;484273;245;2203;-45
2021/07/22 06:16:32;;;;;;;;;;;20.40;66.60;;;;;;484278;245;1229;-45
2021/07/22 06:18:33;;;;;;;;;;;20.40;66.50;;;;;;484284;245;1059;-45
2021/07/22 06:20:35;;;;;;;;;;;20.50;66.60;;;;;;484207;245;1277;-45
2021/07/22 06:22:36;;;;;;;;;;;20.50;66.50;;;;;;484199;245;1231;-45
2021/07/22 06:24:37;;;;;;;;;;;20.50;66.50;;;;;;484207;245;1303;-45
2021/07/22 06:26:39;;;;;;;;;;;20.40;66.50;;;;;;484305;245;1369;-45
2021/07/22 06:28:40;;;;;;;;;;;20.50;66.50;;;;;;484162;245;1088;-45
2021/07/22 06:30:41;;;;;;;;;;;20.40;66.50;;;;;;484091;245;1219;-45
2021/07/22 06:32:43;;;;;;;;;;;20.40;66.50;;;;;;484244;245;1257;-45
2021/07/22 06:34:44;;;;;;;;;;;20.40;66.50;;;;;;484072;245;2152;-45
2021/07/22 06:36:45;;;;;;;;;;;20.50;66.40;;;;;;484049;245;1218;-45
2021/07/22 06:38:47;;;;;;;;;;;20.40;66.50;;;;;;484069;245;1136;-45
2021/07/22 06:40:48;;;;;;;;;;;20.40;66.60;;;;;;484045;245;1228;-45
2021/07/22 06:42:49;;;;;;;;;;;20.40;66.50;;;;;;484101;245;1299;-45
2021/07/22 06:44:51;;;;;;;;;;;20.50;66.50;;;;;;484126;245;1232;-45
2021/07/22 06:46:52;;;;;;;;;;;20.50;66.40;;;;;;484063;245;1165;-45
2021/07/22 06:48:55;;;;;;;;;;;20.50;66.50;;;;;;484016;245;1242;-45
2021/07/22 06:50:55;;;;;;;;;;;20.40;66.40;;;;;;484373;245;1169;-45
2021/07/22 06:52:57;;;;;;;;;;;20.50;66.50;;;;;;484064;245;1179;-45
2021/07/22 06:54:58;;;;;;;;;;;20.50;66.50;;;;;;483896;245;2188;-45
2021/07/22 06:56:59;;;;;;;;;;;20.50;66.50;;;;;;484320;245;1312;-45
2021/07/22 06:59:01;;;;;;;;;;;20.40;66.50;;;;;;484183;245;1074;-45
2021/07/22 07:01:02;;;;;;;;;;;20.50;66.50;;;;;;483593;245;1395;-45
2021/07/22 07:03:03;;;;;;;;;;;20.50;66.40;;;;;;483724;245;1281;-45
2021/07/22 07:05:06;;;;;;;;;;;20.50;66.40;;;;;;483908;245;1142;-45
2021/07/22 07:07:06;;;;;;;;;;;20.50;66.50;;;;;;484215;245;1981;-45
2021/07/22 07:09:08;;;;;;;;;;;20.50;66.50;;;;;;484117;245;1148;-45
2021/07/22 07:11:09;;;;;;;;;;;20.50;66.50;;;;;;484018;245;1230;-45
2021/07/22 07:13:10;;;;;;;;;;;20.40;66.40;;;;;;483998;245;1186;-45
2021/07/22 07:15:12;;;;;;;;;;;20.50;66.40;;;;;;483790;245;2196;-45
2021/07/22 07:17:13;;;;;;;;;;;20.50;66.50;;;;;;483416;245;1640;-45
2021/07/22 07:19:14;;;;;;;;;;;20.50;66.50;;;;;;483596;245;1062;-45
2021/07/22 07:21:16;;;;;;;;;;;20.50;66.50;;;;;;483550;245;1580;-45
2021/07/22 07:23:17;;;;;;;;;;;20.50;66.50;;;;;;483848;245;1281;-45
2021/07/22 07:25:18;;;;;;;;;;;20.40;66.50;;;;;;483944;245;1080;-45
2021/07/22 07:27:19;;;;;;;;;;;20.50;66.50;;;;;;483687;245;1325;-45
2021/07/22 07:29:21;;;;;;;;;;;20.40;66.50;;;;;;483793;245;1170;-45
2021/07/22 07:31:22;;;;;;;;;;;20.50;66.50;;;;;;483770;245;1145;-45
2021/07/22 07:33:24;;;;;;;;;;;20.50;66.40;;;;;;483845;245;2188;-45
2021/07/22 07:35:26;;;;;;;;;;;20.50;66.50;;;;;;483818;245;1194;-45
2021/07/22 07:37:26;;;;;;;;;;;20.50;66.60;;;;;;484051;245;2280;-45
2021/07/22 07:39:28;;;;;;;;;;;20.50;66.50;;;;;;484033;245;1162;-45
2021/07/22 07:41:29;;;;;;;;;;;20.40;66.50;;;;;;483478;245;1220;-45
2021/07/22 07:43:30;;;;;;;;;;;20.50;66.50;;;;;;484480;245;943;-45
2021/07/22 07:45:32;;;;;;;;;;;20.40;66.50;;;;;;484677;245;1174;-45
2021/07/22 07:47:33;;;;;;;;;;;20.50;66.50;;;;;;484276;245;1110;-45
2021/07/22 07:49:34;;;;;;;;;;;20.50;66.40;;;;;;484627;245;881;-45
2021/07/22 07:51:36;;;;;;;;;;;20.40;66.40;;;;;;484465;245;1416;-45
2021/07/22 07:53:37;;;;;;;;;;;20.50;66.50;;;;;;484596;245;2191;-45
2021/07/22 07:55:38;;;;;;;;;;;20.50;66.50;;;;;;484383;245;1219;-45
2021/07/22 07:57:40;;;;;;;;;;;20.40;66.50;;;;;;483697;245;1228;-45
2021/07/22 07:59:42;;;;;;;;;;;20.50;66.50;;;;;;483742;245;1213;-45
2021/07/22 08:01:43;;;;;;;;;;;20.40;66.40;;;;;;483562;243;2103;-45
2021/07/22 08:03:44;;;;;;;;;;;20.40;66.50;;;;;;483948;245;1304;-44
2021/07/22 08:05:45;;;;;;;;;;;20.50;66.50;;;;;;483762;245;1132;-45
2021/07/22 08:07:47;;;;;;;;;;;20.40;66.40;;;;;;483837;245;1254;-45
2021/07/22 08:09:48;;;;;;;;;;;20.50;66.40;;;;;;483731;245;1288;-45
2021/07/22 08:11:49;;;;;;;;;;;20.50;66.40;;;;;;483644;245;1435;-45
2021/07/22 08:13:51;;;;;;;;;;;20.50;66.50;;;;;;483598;245;2187;-45
2021/07/22 08:15:52;;;;;;;;;;;20.50;66.50;;;;;;483702;245;1320;-45
2021/07/22 08:17:53;;;;;;;;;;;20.50;66.50;;;;;;483712;245;1328;-45
2021/07/22 08:19:59;;;;;;;;;;;20.50;66.50;;;;;;483743;245;1162;-45
2021/07/22 08:21:56;;;;;;;;;;;20.40;66.50;;;;;;483536;242;1951;-45
2021/07/22 08:23:59;;;;;;;;;;;20.50;66.50;;;;;;483959;245;1167;-45
2021/07/22 08:25:59;;;;;;;;;;;20.50;66.50;;;;;;483811;246;1997;-45
2021/07/22 08:28:01;;;;;;;;;;;20.50;66.40;;;;;;483856;245;1125;-45
2021/07/22 08:30:02;;;;;;;;;;;20.50;66.30;;;;;;483888;245;1101;-45
2021/07/22 08:32:03;;;;;;;;;;;20.50;66.40;;;;;;483697;245;1228;-45
2021/07/22 08:34:05;;;;;;;;;;;20.50;66.50;;;;;;483668;245;2215;-45
2021/07/22 08:36:06;;;;;;;;;;;20.50;66.50;;;;;;483676;245;1209;-45
2021/07/22 08:38:07;;;;;;;;;;;20.50;66.50;;;;;;483484;245;1177;-45
2021/07/22 08:40:08;;;;;;;;;;;20.40;66.50;;;;;;483480;245;1405;-45
2021/07/22 08:42:10;;;;;;;;;;;20.40;66.60;;;;;;483392;245;1220;-45
2021/07/22 08:44:11;;;;;;;;;;;20.50;66.60;;;;;;483424;245;1098;-45
2021/07/22 08:46:13;;;;;;;;;;;20.50;66.50;;;;;;483544;245;1279;-45
2021/07/22 08:48:14;;;;;;;;;;;20.50;66.60;;;;;;483524;245;1162;-45
2021/07/22 08:50:15;;;;;;;;;;;20.40;66.60;;;;;;483446;245;1113;-45
2021/07/22 08:52:17;;;;;;;;;;;20.40;66.50;;;;;;483353;245;1228;-45
2021/07/22 08:54:18;;;;;;;;;;;20.50;66.50;;;;;;483402;245;2199;-46
2021/07/22 08:56:19;;;;;;;;;;;20.50;66.50;;;;;;483476;245;1318;-45
2021/07/22 08:58:21;;;;;;;;;;;20.40;66.50;;;;;;483674;245;1121;-45
2021/07/22 09:00:22;;;;;;;;;;;20.50;66.50;;;;;;483527;245;1307;-45
2021/07/22 09:02:23;;;;;;;;;;;20.50;66.50;;;;;;483408;245;1060;-46
2021/07/22 09:04:25;;;;;;;;;;;20.50;66.60;;;;;;482699;245;1416;-47
2021/07/22 09:06:26;;;;;;;;;;;20.60;66.20;;;;;;483590;245;1542;-47
2021/07/22 09:08:27;;;;;;;;;;;20.60;66.00;;;;;;483686;245;1161;-47
2021/07/22 09:10:29;;;;;;;;;;;20.60;66.00;;;;;;483631;245;1098;-47
2021/07/22 09:12:30;;;;;;;;;;;20.60;66.00;;;;;;483609;245;1335;-47
2021/07/22 09:14:32;;;;;;;;;;;20.50;66.10;;;;;;483608;245;2191;-47
2021/07/22 09:16:33;;;;;;;;;;;20.50;66.20;;;;;;483573;245;1414;-47
2021/07/22 09:18:36;;;;;;;;;;;20.50;66.20;;;;;;483186;245;1110;-47
2021/07/22 09:20:37;;;;;;;;;;;20.50;66.20;;;;;;483296;245;1246;-47
2021/07/22 09:22:40;;;;;;;;;;;20.50;66.20;;;;;;483300;245;1227;-46
2021/07/22 09:24:41;;;;;;;;;;;20.60;66.20;;;;;;483461;245;1084;-46
2021/07/22 09:26:43;;;;;;;;;;;20.50;66.20;;;;;;483314;245;1176;-46
2021/07/22 09:28:43;;;;;;;;;;;20.50;66.10;;;;;;483239;246;2261;-47
2021/07/22 09:30:45;;;;;;;;;;;20.60;66.20;;;;;;483579;245;1343;-47
2021/07/22 09:32:47;;;;;;;;;;;20.60;66.20;;;;;;483443;245;1337;-47
2021/07/22 09:34:51;;;;;;;;;;;20.50;66.20;;;;;;484313;246;2133;-47
2021/07/22 09:36:49;;;;;;;;;;;20.60;66.10;;;;;;484233;245;2121;-46
2021/07/22 09:38:50;;;;;;;;;;;20.50;66.10;;;;;;484157;245;1197;-47
2021/07/22 09:40:52;;;;;;;;;;;20.50;66.20;;;;;;484608;245;976;-47
2021/07/22 09:42:54;;;;;;;;;;;20.50;66.20;;;;;;484125;245;1150;-47
2021/07/22 09:44:55;;;;;;;;;;;20.60;66.20;;;;;;483611;245;2126;-46
2021/07/22 09:46:56;;;;;;;;;;;20.60;66.20;;;;;;483688;245;2183;-47
2021/07/22 09:48:57;;;;;;;;;;;20.50;66.20;;;;;;483456;245;1227;-46
2021/07/22 09:50:59;;;;;;;;;;;20.50;66.20;;;;;;483750;245;1079;-46
2021/07/22 09:53:00;;;;;;;;;;;20.60;66.30;;;;;;483523;245;1172;-47
2021/07/22 09:55:01;;;;;;;;;;;20.50;66.30;;;;;;483511;245;2187;-47
2021/07/22 09:57:03;;;;;;;;;;;20.50;66.30;;;;;;483454;245;1350;-47
2021/07/22 09:59:04;;;;;;;;;;;20.50;66.20;;;;;;483338;245;1167;-47
2021/07/22 10:01:05;;;;;;;;;;;20.60;66.20;;;;;;483469;245;1272;-47
2021/07/22 10:03:07;;;;;;;;;;;20.60;66.30;;;;;;483590;245;1262;-46
2021/07/22 10:05:09;;;;;;;;;;;20.60;66.20;;;;;;483742;245;1100;-47
2021/07/22 10:07:09;;;;;;;;;;;20.60;66.20;;;;;;484242;245;2223;-47
2021/07/22 10:09:11;;;;;;;;;;;20.60;66.20;;;;;;483894;245;1142;-46
2021/07/22 10:11:12;;;;;;;;;;;20.50;66.30;;;;;;484453;245;1086;-47
2021/07/22 10:13:16;;;;;;;;;;;20.50;66.30;;;;;;484457;245;1452;-46
2021/07/22 10:15:15;;;;;;;;;;;20.50;66.30;;;;;;484391;246;2207;-46
2021/07/22 10:17:16;;;;;;;;;;;20.50;66.30;;;;;;483855;245;1083;-47
2021/07/22 10:19:18;;;;;;;;;;;20.50;66.20;;;;;;484375;245;874;-47
2021/07/22 10:21:19;;;;;;;;;;;20.50;66.30;;;;;;484394;245;1183;-47
2021/07/22 10:23:20;;;;;;;;;;;20.50;66.30;;;;;;484447;245;1087;-47
2021/07/22 10:25:22;;;;;;;;;;;20.50;66.30;;;;;;484472;245;904;-46
2021/07/22 10:27:23;;;;;;;;;;;20.50;66.30;;;;;;484313;245;1060;-46
2021/07/22 10:29:24;;;;;;;;;;;20.50;66.30;;;;;;484345;245;964;-47
2021/07/22 10:31:26;;;;;;;;;;;20.50;66.30;;;;;;484519;245;1251;-47
2021/07/22 10:33:27;;;;;;;;;;;20.50;66.40;;;;;;484546;245;857;-47
2021/07/22 10:35:30;;;;;;;;;;;20.50;66.40;;;;;;484571;245;2199;-47
2021/07/22 10:37:29;;;;;;;;;;;20.50;66.30;;;;;;484395;246;2249;-47
2021/07/22 10:39:31;;;;;;;;;;;20.50;66.40;;;;;;484231;245;1171;-46
2021/07/22 10:41:32;;;;;;;;;;;20.50;66.40;;;;;;484224;245;1169;-47
2021/07/22 10:43:34;;;;;;;;;;;20.50;66.40;;;;;;484423;245;1061;-47
2021/07/22 10:45:35;;;;;;;;;;;20.50;66.30;;;;;;484482;245;1027;-47
2021/07/22 10:47:36;;;;;;;;;;;20.50;66.20;;;;;;484478;245;1035;-47
2021/07/22 10:49:38;;;;;;;;;;;20.60;66.20;;;;;;484041;245;857;-46
2021/07/22 10:51:39;;;;;;;;;;;20.50;66.20;;;;;;484524;245;1290;-46
2021/07/22 10:53:41;;;;;;;;;;;20.50;66.30;;;;;;484155;245;1168;-46
2021/07/22 10:55:42;;;;;;;;;;;20.50;66.30;;;;;;483643;244;2191;-47
2021/07/22 10:57:43;;;;;;;;;;;20.50;66.30;;;;;;483622;245;1241;-46
2021/07/22 10:59:45;;;;;;;;;;;20.50;66.30;;;;;;483827;245;1160;-47
2021/07/22 11:01:46;;;;;;;;;;;20.50;66.30;;;;;;483877;245;1223;-47
2021/07/22 11:03:47;;;;;;;;;;;20.50;66.30;;;;;;484601;245;1106;-47
2021/07/22 11:05:48;;;;;;;;;;;20.50;66.30;;;;;;484039;245;1091;-47
2021/07/22 11:07:50;;;;;;;;;;;20.50;66.30;;;;;;484093;245;1142;-47
2021/07/22 11:09:51;;;;;;;;;;;20.50;66.30;;;;;;484196;245;1167;-46
2021/07/22 11:11:52;;;;;;;;;;;20.50;66.30;;;;;;484377;245;1108;-47
2021/07/22 11:13:54;;;;;;;;;;;20.50;66.30;;;;;;484507;245;857;-47
2021/07/22 11:15:55;;;;;;;;;;;20.50;66.20;;;;;;484443;245;2233;-47
2021/07/22 11:17:56;;;;;;;;;;;20.50;66.20;;;;;;484298;245;1175;-47
2021/07/22 11:19:58;;;;;;;;;;;20.50;66.20;;;;;;484048;245;1075;-47
2021/07/22 11:21:59;;;;;;;;;;;20.50;66.20;;;;;;484241;245;1151;-46
2021/07/22 11:24:00;;;;;;;;;;;20.50;66.20;;;;;;484149;245;1264;-47
2021/07/22 11:26:02;;;;;;;;;;;20.50;66.20;;;;;;484628;245;1170;-46
2021/07/22 11:28:03;;;;;;;;;;;20.50;66.10;;;;;;484165;245;1009;-47
2021/07/22 11:30:04;;;;;;;;;;;20.50;66.20;;;;;;484599;245;899;-47
2021/07/22 11:32:06;;;;;;;;;;;20.50;66.20;;;;;;484283;245;1195;-46
2021/07/22 11:34:07;;;;;;;;;;;20.50;66.20;;;;;;484114;245;1116;-47
2021/07/22 11:36:08;;;;;;;;;;;20.50;66.20;;;;;;484156;245;2188;-47
2021/07/22 11:38:09;;;;;;;;;;;20.50;66.30;;;;;;484597;245;1113;-47
2021/07/22 11:40:11;;;;;;;;;;;20.50;66.40;;;;;;484401;245;1084;-47
2021/07/22 11:42:12;;;;;;;;;;;20.50;66.30;;;;;;484508;243;1462;-47
2021/07/22 11:44:13;;;;;;;;;;;20.50;66.40;;;;;;484124;245;1077;-46
2021/07/22 11:46:15;;;;;;;;;;;20.50;66.30;;;;;;483996;245;1122;-47
2021/07/22 11:48:16;;;;;;;;;;;20.50;66.30;;;;;;484012;245;1230;-47
2021/07/22 11:50:17;;;;;;;;;;;20.50;66.20;;;;;;483998;245;1394;-47
2021/07/22 11:52:19;;;;;;;;;;;20.50;66.30;;;;;;484527;245;1077;-46
2021/07/22 11:54:22;;;;;;;;;;;20.50;66.40;;;;;;484132;245;1151;-47
2021/07/22 11:56:21;;;;;;;;;;;20.50;66.30;;;;;;484474;246;2191;-46